Terminal Aerodrome Forecast
Issued by NWS Jacksonville, FL

Home | Current Version | Previous Version | Text Only | Print | Product List | Glossary On
Versions: 1 2 3 4 5 6 7 8 9 10 11 12 13 14
000
FTUS42 KJAX 102320
TAFJAX
TAF
KJAX 102320Z 1100/1124 01008KT P6SM SCT030 OVC040
     FM110200 03007KT P6SM SCT025 OVC035
     FM111000 06005KT P6SM VCSH BKN025 OVC040
     FM111700 12007KT P6SM VCSH BKN040=

USA.gov is the U.S. government's official web portal to all federal, state and local government web resources and services.